sensor_id;sensor_type;location;lat;lon;timestamp;pressure;altitude;pressure_sealevel;temperature;humidity
38466;BME280;24244;51.950;5.902;2023-01-26T00:02:22;102480.78;;;1.16;79.51
38466;BME280;24244;51.950;5.902;2023-01-26T00:04:49;102482.47;;;1.17;79.92
38466;BME280;24244;51.950;5.902;2023-01-26T00:07:16;102473.69;;;1.18;79.74
38466;BME280;24244;51.950;5.902;2023-01-26T00:09:42;102469.28;;;1.19;79.41
38466;BME280;24244;51.950;5.902;2023-01-26T00:12:09;102464.97;;;1.18;80.13
38466;BME280;24244;51.950;5.902;2023-01-26T00:14:37;102454.44;;;1.20;79.98
38466;BME280;24244;51.950;5.902;2023-01-26T00:17:18;102461.50;;;1.17;79.47
38466;BME280;24244;51.950;5.902;2023-01-26T00:19:57;102465.91;;;1.17;79.57
38466;BME280;24244;51.950;5.902;2023-01-26T00:22:33;102454.78;;;1.13;80.05
38466;BME280;24244;51.950;5.902;2023-01-26T00:24:59;102464.47;;;1.11;79.93
38466;BME280;24244;51.950;5.902;2023-01-26T00:27:26;102445.28;;;1.11;79.80
38466;BME280;24244;51.950;5.902;2023-01-26T00:29:54;102445.28;;;1.11;79.63
38466;BME280;24244;51.950;5.902;2023-01-26T00:32:21;102443.59;;;1.10;79.68
38466;BME280;24244;51.950;5.902;2023-01-26T00:34:48;102445.28;;;1.11;79.72
38466;BME280;24244;51.950;5.902;2023-01-26T00:37:14;102435.81;;;1.08;80.03
38466;BME280;24244;51.950;5.902;2023-01-26T00:39:41;102434.97;;;1.08;79.80
38466;BME280;24244;51.950;5.902;2023-01-26T00:42:09;102434.91;;;1.09;79.88
38466;BME280;24244;51.950;5.902;2023-01-26T00:44:37;102432.19;;;1.11;80.13
38466;BME280;24244;51.950;5.902;2023-01-26T00:47:08;102428.75;;;1.10;80.00
38466;BME280;24244;51.950;5.902;2023-01-26T00:49:37;102421.81;;;1.09;79.65
38466;BME280;24244;51.950;5.902;2023-01-26T00:52:04;102418.34;;;1.09;79.88
38466;BME280;24244;51.950;5.902;2023-01-26T00:54:31;102418.34;;;1.09;79.75
38466;BME280;24244;51.950;5.902;2023-01-26T00:56:58;102435.81;;;1.08;80.06
38466;BME280;24244;51.950;5.902;2023-01-26T00:59:25;102433.13;;;1.10;80.12
38466;BME280;24244;51.950;5.902;2023-01-26T01:01:54;102437.50;;;1.09;79.98
38466;BME280;24244;51.950;5.902;2023-01-26T01:04:22;102432.19;;;1.11;79.78
38466;BME280;24244;51.950;5.902;2023-01-26T01:06:50;102429.75;;;1.08;80.28
38466;BME280;24244;51.950;5.902;2023-01-26T01:09:17;102430.59;;;1.08;79.59
38466;BME280;24244;51.950;5.902;2023-01-26T01:11:44;102426.19;;;1.09;79.99
38466;BME280;24244;51.950;5.902;2023-01-26T01:14:11;102425.28;;;1.10;80.34
38466;BME280;24244;51.950;5.902;2023-01-26T01:16:39;102423.50;;;1.10;80.17
38466;BME280;24244;51.950;5.902;2023-01-26T01:19:06;102420.81;;;1.12;80.33
38466;BME280;24244;51.950;5.902;2023-01-26T01:21:35;102417.25;;;1.13;80.19
38466;BME280;24244;51.950;5.902;2023-01-26T01:24:02;102411.06;;;1.14;79.64
38466;BME280;24244;51.950;5.902;2023-01-26T01:26:29;102412.75;;;1.15;80.15
38466;BME280;24244;51.950;5.902;2023-01-26T01:28:56;102420.63;;;1.15;80.07
38466;BME280;24244;51.950;5.902;2023-01-26T01:31:24;102420.72;;;1.13;79.95
38466;BME280;24244;51.950;5.902;2023-01-26T01:33:52;102425.13;;;1.13;80.14
38466;BME280;24244;51.950;5.902;2023-01-26T01:36:19;102429.50;;;1.12;79.83
38466;BME280;24244;51.950;5.902;2023-01-26T01:38:49;102418.94;;;1.14;79.84
38466;BME280;24244;51.950;5.902;2023-01-26T01:41:17;102411.91;;;1.14;80.45
38466;BME280;24244;51.950;5.902;2023-01-26T01:43:46;102413.59;;;1.15;80.45
38466;BME280;24244;51.950;5.902;2023-01-26T01:46:18;102418.84;;;1.15;80.35
38466;BME280;24244;51.950;5.902;2023-01-26T01:48:51;102416.31;;;1.14;80.32
38466;BME280;24244;51.950;5.902;2023-01-26T01:51:21;102415.38;;;1.15;80.39
38466;BME280;24244;51.950;5.902;2023-01-26T01:54:09;102417.16;;;1.14;80.04
38466;BME280;24244;51.950;5.902;2023-01-26T01:56:39;102413.59;;;1.15;80.54
38466;BME280;24244;51.950;5.902;2023-01-26T01:59:10;102407.44;;;1.16;80.17
38466;BME280;24244;51.950;5.902;2023-01-26T02:01:38;102402.22;;;1.16;80.22
38466;BME280;24244;51.950;5.902;2023-01-26T02:04:06;102402.22;;;1.16;80.15
38466;BME280;24244;51.950;5.902;2023-01-26T02:06:35;102400.34;;;1.18;80.15
38466;BME280;24244;51.950;5.902;2023-01-26T02:09:07;102395.97;;;1.19;80.04
38466;BME280;24244;51.950;5.902;2023-01-26T02:11:37;102395.97;;;1.19;79.75
38466;BME280;24244;51.950;5.902;2023-01-26T02:18:02;102388.19;;;1.17;80.02
38466;BME280;24244;51.950;5.902;2023-01-26T02:20:35;102389.03;;;1.18;80.14
38466;BME280;24244;51.950;5.902;2023-01-26T02:23:09;102392.50;;;1.18;80.08
38466;BME280;24244;51.950;5.902;2023-01-26T02:25:42;102384.56;;;1.20;80.41
38466;BME280;24244;51.950;5.902;2023-01-26T02:28:12;102383.59;;;1.21;80.20
38466;BME280;24244;51.950;5.902;2023-01-26T02:30:39;102386.22;;;1.21;79.84
38466;BME280;24244;51.950;5.902;2023-01-26T02:33:06;102383.59;;;1.21;80.49
38466;BME280;24244;51.950;5.902;2023-01-26T02:38:54;102382.69;;;1.22;80.26
38466;BME280;24244;51.950;5.902;2023-01-26T02:41:25;102376.59;;;1.22;80.21
38466;BME280;24244;51.950;5.902;2023-01-26T02:44:12;102380.91;;;1.23;80.62
38466;BME280;24244;51.950;5.902;2023-01-26T02:46:40;102372.97;;;1.24;80.61
38466;BME280;24244;51.950;5.902;2023-01-26T02:49:07;102373.06;;;1.23;80.31
38466;BME280;24244;51.950;5.902;2023-01-26T02:51:52;102387.06;;;1.22;80.33
38466;BME280;24244;51.950;5.902;2023-01-26T02:54:19;102383.59;;;1.21;80.31
38466;BME280;24244;51.950;5.902;2023-01-26T03:00:08;102394.94;;;1.22;80.75
38466;BME280;24244;51.950;5.902;2023-01-26T03:02:36;102382.78;;;1.21;80.19
38466;BME280;24244;51.950;5.902;2023-01-26T03:05:04;102381.00;;;1.21;80.48
38466;BME280;24244;51.950;5.902;2023-01-26T03:07:31;102387.00;;;1.23;80.72
38466;BME280;24244;51.950;5.902;2023-01-26T03:09:57;102384.28;;;1.25;80.90
38466;BME280;24244;51.950;5.902;2023-01-26T03:12:25;102391.22;;;1.26;80.30
38466;BME280;24244;51.950;5.902;2023-01-26T03:14:52;102385.06;;;1.27;80.60
38466;BME280;24244;51.950;5.902;2023-01-26T03:17:40;102378.91;;;1.28;80.72
38466;BME280;24244;51.950;5.902;2023-01-26T03:20:08;102388.41;;;1.29;80.28
38466;BME280;24244;51.950;5.902;2023-01-26T03:22:55;102377.22;;;1.27;80.71
38466;BME280;24244;51.950;5.902;2023-01-26T03:25:57;102380.75;;;1.26;80.47
38466;BME280;24244;51.950;5.902;2023-01-26T03:28:42;102369.34;;;1.27;80.97
38466;BME280;24244;51.950;5.902;2023-01-26T03:31:08;102375.44;;;1.27;81.09
38466;BME280;24244;51.950;5.902;2023-01-26T03:33:37;102373.53;;;1.29;80.32
38466;BME280;24244;51.950;5.902;2023-01-26T03:36:04;102370.94;;;1.29;80.38
38466;BME280;24244;51.950;5.902;2023-01-26T03:38:31;102377.00;;;1.30;80.84
38466;BME280;24244;51.950;5.902;2023-01-26T03:40:58;102373.47;;;1.31;80.68
38466;BME280;24244;51.950;5.902;2023-01-26T03:43:43;102378.72;;;1.31;80.77
38466;BME280;24244;51.950;5.902;2023-01-26T03:46:29;102370.09;;;1.29;80.48
38466;BME280;24244;51.950;5.902;2023-01-26T03:49:15;102367.38;;;1.30;80.98
38466;BME280;24244;51.950;5.902;2023-01-26T03:52:00;102370.00;;;1.30;80.98
38466;BME280;24244;51.950;5.902;2023-01-26T03:54:45;102369.06;;;1.31;80.91
38466;BME280;24244;51.950;5.902;2023-01-26T03:57:31;102363.84;;;1.31;80.57
38466;BME280;24244;51.950;5.902;2023-01-26T03:59:57;102369.91;;;1.32;81.00
38466;BME280;24244;51.950;5.902;2023-01-26T04:02:25;102372.53;;;1.32;80.72
38466;BME280;24244;51.950;5.902;2023-01-26T04:05:11;102371.63;;;1.33;81.03
38466;BME280;24244;51.950;5.902;2023-01-26T04:08:01;102370.69;;;1.34;80.67
38466;BME280;24244;51.950;5.902;2023-01-26T04:10:47;102375.00;;;1.35;81.02
38466;BME280;24244;51.950;5.902;2023-01-26T04:13:16;102375.94;;;1.34;80.64
38466;BME280;24244;51.950;5.902;2023-01-26T04:16:02;102376.66;;;1.36;80.78
38466;BME280;24244;51.950;5.902;2023-01-26T04:18:48;102375.00;;;1.35;80.94
38466;BME280;24244;51.950;5.902;2023-01-26T04:21:35;102370.56;;;1.35;81.10
38466;BME280;24244;51.950;5.902;2023-01-26T04:24:03;102376.66;;;1.36;80.80
38466;BME280;24244;51.950;5.902;2023-01-26T04:26:43;102369.66;;;1.36;80.60
38466;BME280;24244;51.950;5.902;2023-01-26T04:29:11;102376.50;;;1.39;81.18
38466;BME280;24244;51.950;5.902;2023-01-26T04:31:39;102369.50;;;1.39;80.78
38466;BME280;24244;51.950;5.902;2023-01-26T04:34:10;102370.13;;;1.43;80.63
38466;BME280;24244;51.950;5.902;2023-01-26T04:36:38;102370.91;;;1.45;81.15
38466;BME280;24244;51.950;5.902;2023-01-26T04:39:06;102376.06;;;1.46;81.02
38466;BME280;24244;51.950;5.902;2023-01-26T04:41:33;102368.19;;;1.46;80.74
38466;BME280;24244;51.950;5.902;2023-01-26T04:44:00;102369.91;;;1.47;80.52
38466;BME280;24244;51.950;5.902;2023-01-26T04:46:26;102364.66;;;1.47;80.96
38466;BME280;24244;51.950;5.902;2023-01-26T04:48:53;102356.88;;;1.46;80.64
38466;BME280;24244;51.950;5.902;2023-01-26T04:51:21;102366.50;;;1.45;80.61
38466;BME280;24244;51.950;5.902;2023-01-26T04:53:50;102357.72;;;1.46;81.06
38466;BME280;24244;51.950;5.902;2023-01-26T04:56:20;102363.81;;;1.47;81.13
38466;BME280;24244;51.950;5.902;2023-01-26T04:58:48;102370.75;;;1.48;80.85
38466;BME280;24244;51.950;5.902;2023-01-26T05:01:15;102366.25;;;1.50;80.80
38466;BME280;24244;51.950;5.902;2023-01-26T05:03:42;102361.84;;;1.50;81.00
38466;BME280;24244;51.950;5.902;2023-01-26T05:06:09;102356.53;;;1.52;81.08
38466;BME280;24244;51.950;5.902;2023-01-26T05:08:36;102358.22;;;1.53;80.84
38466;BME280;24244;51.950;5.902;2023-01-26T05:11:05;102351.19;;;1.53;81.30
38466;BME280;24244;51.950;5.902;2023-01-26T05:13:32;102348.56;;;1.53;80.82
38466;BME280;24244;51.950;5.902;2023-01-26T05:16:01;102351.97;;;1.55;81.29
38466;BME280;24244;51.950;5.902;2023-01-26T05:18:29;102355.31;;;1.57;80.82
38466;BME280;24244;51.950;5.902;2023-01-26T05:20:56;102347.44;;;1.57;81.38
38466;BME280;24244;51.950;5.902;2023-01-26T05:23:23;102351.75;;;1.58;80.88
38466;BME280;24244;51.950;5.902;2023-01-26T05:25:49;102354.47;;;1.57;81.02
38466;BME280;24244;51.950;5.902;2023-01-26T05:28:18;102353.63;;;1.56;81.01
38466;BME280;24244;51.950;5.902;2023-01-26T05:30:46;102349.22;;;1.57;81.25
38466;BME280;24244;51.950;5.902;2023-01-26T05:33:13;102344.19;;;1.54;80.79
38466;BME280;24244;51.950;5.902;2023-01-26T05:35:41;102349.34;;;1.55;81.21
38466;BME280;24244;51.950;5.902;2023-01-26T05:38:08;102349.34;;;1.55;81.07
38466;BME280;24244;51.950;5.902;2023-01-26T05:40:35;102344.84;;;1.57;80.92
38466;BME280;24244;51.950;5.902;2023-01-26T05:43:02;102341.28;;;1.58;81.14
38466;BME280;24244;51.950;5.902;2023-01-26T05:45:30;102348.22;;;1.60;81.28
38466;BME280;24244;51.950;5.902;2023-01-26T05:47:57;102351.59;;;1.62;81.06
38466;BME280;24244;51.950;5.902;2023-01-26T05:50:24;102346.34;;;1.62;80.76
38466;BME280;24244;51.950;5.902;2023-01-26T05:52:50;102346.28;;;1.63;81.21
38466;BME280;24244;51.950;5.902;2023-01-26T05:55:17;102345.44;;;1.63;81.07
38466;BME280;24244;51.950;5.902;2023-01-26T05:57:44;102339.22;;;1.64;81.11
38466;BME280;24244;51.950;5.902;2023-01-26T06:00:12;102352.25;;;1.65;80.84
38466;BME280;24244;51.950;5.902;2023-01-26T06:02:41;102357.50;;;1.65;80.90
38466;BME280;24244;51.950;5.902;2023-01-26T06:05:08;102358.34;;;1.66;81.51
38466;BME280;24244;51.950;5.902;2023-01-26T06:07:35;102360.88;;;1.67;81.18
38466;BME280;24244;51.950;5.902;2023-01-26T06:10:02;102362.56;;;1.68;81.14
38466;BME280;24244;51.950;5.902;2023-01-26T06:12:29;102364.25;;;1.69;81.05
38466;BME280;24244;51.950;5.902;2023-01-26T06:15:01;102362.38;;;1.71;80.95
38466;BME280;24244;51.950;5.902;2023-01-26T06:17:28;102359.66;;;1.73;81.11
38466;BME280;24244;51.950;5.902;2023-01-26T06:19:56;102351.72;;;1.74;80.85
38466;BME280;24244;51.950;5.902;2023-01-26T06:22:23;102355.19;;;1.75;80.94
38466;BME280;24244;51.950;5.902;2023-01-26T06:24:50;102359.59;;;1.74;81.21
38466;BME280;24244;51.950;5.902;2023-01-26T06:27:17;102355.19;;;1.75;81.46
38466;BME280;24244;51.950;5.902;2023-01-26T06:29:45;102360.34;;;1.76;80.79
38466;BME280;24244;51.950;5.902;2023-01-26T06:32:12;102362.84;;;1.78;81.23
38466;BME280;24244;51.950;5.902;2023-01-26T06:34:39;102360.16;;;1.79;81.07
38466;BME280;24244;51.950;5.902;2023-01-26T06:37:08;102365.38;;;1.79;80.96
38466;BME280;24244;51.950;5.902;2023-01-26T06:39:34;102367.09;;;1.80;81.38
38466;BME280;24244;51.950;5.902;2023-01-26T06:42:02;102365.31;;;1.81;80.97
38466;BME280;24244;51.950;5.902;2023-01-26T06:44:28;102373.16;;;1.81;81.23
38466;BME280;24244;51.950;5.902;2023-01-26T06:46:55;102381.03;;;1.81;81.33
38466;BME280;24244;51.950;5.902;2023-01-26T06:49:22;102376.63;;;1.81;81.27
38466;BME280;24244;51.950;5.902;2023-01-26T06:51:55;102389.75;;;1.81;81.21
38466;BME280;24244;51.950;5.902;2023-01-26T06:54:24;102384.34;;;1.84;81.15
38466;BME280;24244;51.950;5.902;2023-01-26T06:56:53;102382.53;;;1.85;81.36
38466;BME280;24244;51.950;5.902;2023-01-26T06:59:20;102382.66;;;1.83;81.56
38466;BME280;24244;51.950;5.902;2023-01-26T07:01:47;102385.25;;;1.83;80.96
38466;BME280;24244;51.950;5.902;2023-01-26T07:04:15;102388.63;;;1.85;81.43
38466;BME280;24244;51.950;5.902;2023-01-26T07:06:42;102391.25;;;1.85;81.33
38466;BME280;24244;51.950;5.902;2023-01-26T07:09:10;102390.50;;;1.83;81.51
38466;BME280;24244;51.950;5.902;2023-01-26T07:11:38;102383.38;;;1.85;81.42
38466;BME280;24244;51.950;5.902;2023-01-26T07:14:05;102393.78;;;1.87;81.06
38466;BME280;24244;51.950;5.902;2023-01-26T07:16:32;102392.84;;;1.88;81.06
38466;BME280;24244;51.950;5.902;2023-01-26T07:18:59;102388.44;;;1.88;81.58
38466;BME280;24244;51.950;5.902;2023-01-26T07:21:26;102391.00;;;1.90;81.46
38466;BME280;24244;51.950;5.902;2023-01-26T07:23:54;102386.69;;;1.89;81.31
38466;BME280;24244;51.950;5.902;2023-01-26T07:26:21;102384.91;;;1.89;81.33
38466;BME280;24244;51.950;5.902;2023-01-26T07:28:49;102384.81;;;1.91;81.37
38466;BME280;24244;51.950;5.902;2023-01-26T07:31:16;102376.75;;;1.94;81.28
38466;BME280;24244;51.950;5.902;2023-01-26T07:33:43;102389.03;;;1.93;81.59
38466;BME280;24244;51.950;5.902;2023-01-26T07:36:10;102391.56;;;1.95;81.45
38466;BME280;24244;51.950;5.902;2023-01-26T07:38:37;102396.72;;;1.96;81.39
38466;BME280;24244;51.950;5.902;2023-01-26T07:41:06;102398.50;;;1.96;81.40
38466;BME280;24244;51.950;5.902;2023-01-26T07:43:33;102401.03;;;1.98;81.56
38466;BME280;24244;51.950;5.902;2023-01-26T07:46:03;102397.38;;;2.00;81.11
38466;BME280;24244;51.950;5.902;2023-01-26T07:48:30;102401.69;;;2.01;81.74
38466;BME280;24244;51.950;5.902;2023-01-26T07:50:57;102407.84;;;2.00;81.03
38466;BME280;24244;51.950;5.902;2023-01-26T07:53:26;102411.31;;;2.01;81.24
38466;BME280;24244;51.950;5.902;2023-01-26T07:56:04;102410.38;;;2.02;81.46
38466;BME280;24244;51.950;5.902;2023-01-26T07:58:32;102405.06;;;2.03;81.42
38466;BME280;24244;51.950;5.902;2023-01-26T08:01:07;102409.47;;;2.03;81.78
38466;BME280;24244;51.950;5.902;2023-01-26T08:03:34;102412.84;;;2.05;81.74
38466;BME280;24244;51.950;5.902;2023-01-26T08:06:01;102409.28;;;2.06;81.47
38466;BME280;24244;51.950;5.902;2023-01-26T08:08:28;102417.25;;;2.04;81.74
38466;BME280;24244;51.950;5.902;2023-01-26T08:10:56;102415.56;;;2.03;81.42
38466;BME280;24244;51.950;5.902;2023-01-26T08:13:23;102419.88;;;2.04;81.69
38466;BME280;24244;51.950;5.902;2023-01-26T08:16:01;102416.19;;;2.07;81.86
38466;BME280;24244;51.950;5.902;2023-01-26T08:18:30;102416.97;;;2.09;81.81
38466;BME280;24244;51.950;5.902;2023-01-26T08:20:58;102420.34;;;2.11;81.83
38466;BME280;24244;51.950;5.902;2023-01-26T08:23:26;102421.28;;;2.10;81.65
38466;BME280;24244;51.950;5.902;2023-01-26T08:25:53;102421.19;;;2.11;81.53
38466;BME280;24244;51.950;5.902;2023-01-26T08:28:21;102420.25;;;2.12;81.78
38466;BME280;24244;51.950;5.902;2023-01-26T08:30:48;102424.53;;;2.13;81.92
38466;BME280;24244;51.950;5.902;2023-01-26T08:33:15;102415.94;;;2.11;81.97
38466;BME280;24244;51.950;5.902;2023-01-26T08:35:43;102428.00;;;2.14;81.93
38466;BME280;24244;51.950;5.902;2023-01-26T08:38:10;102418.47;;;2.13;81.89
38466;BME280;24244;51.950;5.902;2023-01-26T08:40:37;102420.16;;;2.14;82.06
38466;BME280;24244;51.950;5.902;2023-01-26T08:43:04;102414.81;;;2.15;81.87
38466;BME280;24244;51.950;5.902;2023-01-26T08:45:31;102416.59;;;2.15;81.81
38466;BME280;24244;51.950;5.902;2023-01-26T08:47:58;102417.44;;;2.15;82.03
38466;BME280;24244;51.950;5.902;2023-01-26T08:50:25;102419.22;;;2.15;81.67
38466;BME280;24244;51.950;5.902;2023-01-26T08:52:55;102415.56;;;2.17;81.72
38466;BME280;24244;51.950;5.902;2023-01-26T08:55:22;102413.13;;;2.14;82.48
38466;BME280;24244;51.950;5.902;2023-01-26T08:57:52;102421.75;;;2.16;82.17
38466;BME280;24244;51.950;5.902;2023-01-26T09:00:22;102416.50;;;2.16;82.06
38466;BME280;24244;51.950;5.902;2023-01-26T09:02:50;102425.13;;;2.18;82.14
38466;BME280;24244;51.950;5.902;2023-01-26T09:05:17;102417.19;;;2.20;81.91
38466;BME280;24244;51.950;5.902;2023-01-26T09:07:44;102418.00;;;2.20;82.03
38466;BME280;24244;51.950;5.902;2023-01-26T09:10:12;102414.66;;;2.18;82.52
38466;BME280;24244;51.950;5.902;2023-01-26T09:12:39;102421.59;;;2.19;82.35
38466;BME280;24244;51.950;5.902;2023-01-26T09:15:07;102424.94;;;2.21;82.30
38466;BME280;24244;51.950;5.902;2023-01-26T09:17:35;102417.75;;;2.25;82.33
38466;BME280;24244;51.950;5.902;2023-01-26T09:20:03;102420.16;;;2.28;82.29
38466;BME280;24244;51.950;5.902;2023-01-26T09:22:30;102427.88;;;2.31;81.96
38466;BME280;24244;51.950;5.902;2023-01-26T09:24:57;102432.19;;;2.32;82.49
38466;BME280;24244;51.950;5.902;2023-01-26T09:27:25;102431.13;;;2.34;82.42
38466;BME280;24244;51.950;5.902;2023-01-26T09:29:52;102435.66;;;2.32;82.43
38466;BME280;24244;51.950;5.902;2023-01-26T09:32:19;102435.56;;;2.34;82.35
38466;BME280;24244;51.950;5.902;2023-01-26T09:34:46;102431.13;;;2.34;83.19
38466;BME280;24244;51.950;5.902;2023-01-26T09:37:13;102431.06;;;2.36;82.97
38466;BME280;24244;51.950;5.902;2023-01-26T09:39:40;102432.66;;;2.39;82.75
38466;BME280;24244;51.950;5.902;2023-01-26T09:42:38;102438.66;;;2.41;83.03
38466;BME280;24244;51.950;5.902;2023-01-26T09:45:23;102431.63;;;2.41;83.39
38466;BME280;24244;51.950;5.902;2023-01-26T09:48:08;102427.97;;;2.44;82.84
38466;BME280;24244;51.950;5.902;2023-01-26T09:50:41;102427.78;;;2.47;83.14
38466;BME280;24244;51.950;5.902;2023-01-26T09:53:14;102420.56;;;2.50;82.71
38466;BME280;24244;51.950;5.902;2023-01-26T09:55:44;102422.16;;;2.53;83.19
38466;BME280;24244;51.950;5.902;2023-01-26T09:58:16;102429.03;;;2.55;83.03
38466;BME280;24244;51.950;5.902;2023-01-26T10:00:49;102427.97;;;2.58;83.31
38466;BME280;24244;51.950;5.902;2023-01-26T10:03:23;102425.16;;;2.61;82.82
38466;BME280;24244;51.950;5.902;2023-01-26T10:05:55;102429.28;;;2.65;82.91
38466;BME280;24244;51.950;5.902;2023-01-26T10:08:24;102439.59;;;2.68;83.38
38466;BME280;24244;51.950;5.902;2023-01-26T10:10:53;102434.06;;;2.72;82.81
38466;BME280;24244;51.950;5.902;2023-01-26T10:13:24;102434.72;;;2.76;83.44
38466;BME280;24244;51.950;5.902;2023-01-26T10:15:53;102434.44;;;2.81;82.94
38466;BME280;24244;51.950;5.902;2023-01-26T10:18:27;102427.97;;;2.86;82.97
38466;BME280;24244;51.950;5.902;2023-01-26T10:20:57;102428.53;;;2.91;83.28
38466;BME280;24244;51.950;5.902;2023-01-26T10:23:28;102431.81;;;2.95;83.67
38466;BME280;24244;51.950;5.902;2023-01-26T10:26:00;102424.47;;;3.00;83.51
38466;BME280;24244;51.950;5.902;2023-01-26T10:28:29;102433.00;;;3.03;83.86
38466;BME280;24244;51.950;5.902;2023-01-26T10:30:56;102432.81;;;3.06;83.74
38466;BME280;24244;51.950;5.902;2023-01-26T10:33:26;102440.41;;;3.11;84.15
38466;BME280;24244;51.950;5.902;2023-01-26T10:35:53;102434.94;;;3.14;83.96
38466;BME280;24244;51.950;5.902;2023-01-26T10:38:39;102429.41;;;3.19;84.04
38466;BME280;24244;51.950;5.902;2023-01-26T10:41:15;102423.88;;;3.23;84.04
38466;BME280;24244;51.950;5.902;2023-01-26T10:43:52;102430.50;;;3.29;84.33
38466;BME280;24244;51.950;5.902;2023-01-26T10:46:25;102430.31;;;3.32;83.90
38466;BME280;24244;51.950;5.902;2023-01-26T10:48:54;102423.06;;;3.35;84.26
38466;BME280;24244;51.950;5.902;2023-01-26T10:51:27;102425.41;;;3.40;84.34
38466;BME280;24244;51.950;5.902;2023-01-26T10:54:12;102424.25;;;3.44;83.99
38466;BME280;24244;51.950;5.902;2023-01-26T10:56:43;102430.19;;;3.47;84.35
38466;BME280;24244;51.950;5.902;2023-01-26T10:59:16;102429.13;;;3.50;84.22
38466;BME280;24244;51.950;5.902;2023-01-26T11:01:52;102420.97;;;3.54;84.55
38466;BME280;24244;51.950;5.902;2023-01-26T11:04:19;102428.63;;;3.58;84.93
38466;BME280;24244;51.950;5.902;2023-01-26T11:06:46;102427.50;;;3.62;85.04
38466;BME280;24244;51.950;5.902;2023-01-26T11:09:18;102422.03;;;3.65;85.05
38466;BME280;24244;51.950;5.902;2023-01-26T11:11:55;102415.50;;;3.70;84.85
38466;BME280;24244;51.950;5.902;2023-01-26T11:14:24;102418.88;;;3.72;85.00
38466;BME280;24244;51.950;5.902;2023-01-26T11:16:56;102412.38;;;3.78;85.23
38466;BME280;24244;51.950;5.902;2023-01-26T11:19:39;102426.09;;;3.83;84.78
38466;BME280;24244;51.950;5.902;2023-01-26T11:22:10;102424.91;;;3.87;85.26
38466;BME280;24244;51.950;5.902;2023-01-26T11:24:41;102422.94;;;3.90;85.26
38466;BME280;24244;51.950;5.902;2023-01-26T11:27:26;102418.13;;;3.97;84.98
38466;BME280;24244;51.950;5.902;2023-01-26T11:30:12;102424.66;;;4.04;84.69
38466;BME280;24244;51.950;5.902;2023-01-26T11:32:50;102422.53;;;4.09;84.64
38466;BME280;24244;51.950;5.902;2023-01-26T11:35:28;102417.72;;;4.16;84.50
38466;BME280;24244;51.950;5.902;2023-01-26T11:38:08;102416.44;;;4.21;84.87
38466;BME280;24244;51.950;5.902;2023-01-26T11:40:45;102412.44;;;4.28;84.84
38466;BME280;24244;51.950;5.902;2023-01-26T11:43:37;102416.44;;;4.34;84.64
38466;BME280;24244;51.950;5.902;2023-01-26T11:46:27;102415.91;;;4.42;84.90
38466;BME280;24244;51.950;5.902;2023-01-26T11:49:12;102409.50;;;4.46;85.19
38466;BME280;24244;51.950;5.902;2023-01-26T11:51:50;102414.25;;;4.53;85.92
38466;BME280;24244;51.950;5.902;2023-01-26T11:54:27;102412.97;;;4.59;86.47
38466;BME280;24244;51.950;5.902;2023-01-26T11:57:06;102413.47;;;4.64;86.10
38466;BME280;24244;51.950;5.902;2023-01-26T11:59:37;102410.41;;;4.70;85.88
38466;BME280;24244;51.950;5.902;2023-01-26T12:02:23;102411.66;;;4.77;85.98
38466;BME280;24244;51.950;5.902;2023-01-26T12:04:55;102401.53;;;4.84;85.70
38466;BME280;24244;51.950;5.902;2023-01-26T12:07:28;102407.94;;;4.92;85.60
38466;BME280;24244;51.950;5.902;2023-01-26T12:09:57;102405.63;;;5.00;85.87
38466;BME280;24244;51.950;5.902;2023-01-26T12:12:29;102402.53;;;5.06;85.74
38466;BME280;24244;51.950;5.902;2023-01-26T12:15:01;102404.03;;;5.10;85.39
38466;BME280;24244;51.950;5.902;2023-01-26T12:17:41;102385.22;;;5.15;85.44
38466;BME280;24244;51.950;5.902;2023-01-26T12:20:25;102385.63;;;5.22;85.47
38466;BME280;24244;51.950;5.902;2023-01-26T12:22:59;102375.47;;;5.28;85.41
38466;BME280;24244;51.950;5.902;2023-01-26T12:25:31;102385.44;;;5.36;85.25
38466;BME280;24244;51.950;5.902;2023-01-26T12:28:07;102377.19;;;5.40;85.44
38466;BME280;24244;51.950;5.902;2023-01-26T12:30:42;102374.00;;;5.48;85.30
38466;BME280;24244;51.950;5.902;2023-01-26T12:33:13;102373.31;;;5.57;85.06
38466;BME280;24244;51.950;5.902;2023-01-26T12:38:41;102353.50;;;5.75;85.34
38466;BME280;24244;51.950;5.902;2023-01-26T12:41:17;102344.97;;;5.83;85.48
38466;BME280;24244;51.950;5.902;2023-01-26T12:43:54;102340.81;;;5.92;85.08
38466;BME280;24244;51.950;5.902;2023-01-26T12:46:23;102337.50;;;6.01;85.23
38466;BME280;24244;51.950;5.902;2023-01-26T12:48:54;102334.25;;;6.08;85.83
38466;BME280;24244;51.950;5.902;2023-01-26T12:51:26;102333.66;;;6.16;85.62
38466;BME280;24244;51.950;5.902;2023-01-26T12:53:58;102331.28;;;6.24;85.60
38466;BME280;24244;51.950;5.902;2023-01-26T12:56:31;102334.16;;;6.32;85.97
38466;BME280;24244;51.950;5.902;2023-01-26T12:59:06;102338.69;;;6.41;86.08
38466;BME280;24244;51.950;5.902;2023-01-26T13:01:38;102321.53;;;6.47;86.30
38466;BME280;24244;51.950;5.902;2023-01-26T13:04:10;102337.50;;;6.56;85.84
38466;BME280;24244;51.950;5.902;2023-01-26T13:06:38;102329.09;;;6.62;85.82
38466;BME280;24244;51.950;5.902;2023-01-26T13:09:21;102327.50;;;6.71;85.86
38466;BME280;24244;51.950;5.902;2023-01-26T13:11:50;102323.53;;;6.77;85.90
38466;BME280;24244;51.950;5.902;2023-01-26T13:14:35;102319.44;;;6.84;85.76
38466;BME280;24244;51.950;5.902;2023-01-26T13:17:45;102325.22;;;6.89;85.88
38466;BME280;24244;51.950;5.902;2023-01-26T13:26:40;102321.28;;;7.04;85.54
38466;BME280;24244;51.950;5.902;2023-01-26T13:29:32;102314.81;;;7.08;85.53
38466;BME280;24244;51.950;5.902;2023-01-26T13:35:22;102315.03;;;7.16;85.53
38466;BME280;24244;51.950;5.902;2023-01-26T13:37:55;102324.50;;;7.19;85.63
38466;BME280;24244;51.950;5.902;2023-01-26T13:40:29;102319.69;;;7.24;85.71
38466;BME280;24244;51.950;5.902;2023-01-26T13:43:05;102318.59;;;7.26;85.69
38466;BME280;24244;51.950;5.902;2023-01-26T13:45:58;102309.56;;;7.29;85.77